Terminal Aerodrome Forecast
Issued by NWS

Home | Current Version | Previous Version | Graphics & Text | Print | Product List | Glossary Off
Versions: 1 2 3 4 5 6 7 8 9 10 11 12 13 14 15 16 17 18 19 20 21 22 23 24 25

122
FTUS43 KGRB 230536
TAFMTW
TAF
KMTW 230536Z 2306/2406 30002KT 4SM BR OVC010
      TEMPO 2306/2310 1SM BR OVC004
     FM231000 32004KT 2SM BR OVC005
     FM231500 33005KT 4SM BR OVC007
     FM232000 33005KT 5SM BR OVC012=

USA.gov is the U.S. government's official web portal to all federal, state and local government web resources and services.